Accueil
METAR-TAF:

METAR-TAF

Aéroports :

Curaçao, Antilles néerlandaises

Aéroport international de Curaçao

latitude: 12-12N, longitude: 068-58W, altitude: 9 m

Observation

Le bulletin a été fait il y a 1 heure et 8 minutes, à 02:00 UTC
Vent 13 kt de est
Température 27°C
Humidité 79%
Pression 1014 hPa
Visibilité 10 km ou plus
Nuages fragmentés à une hauteur de 1600 ft

METAR: TNCC 250200Z 09013KT 9999 BKN016 27/23 Q1014 NOSIG

Heure: 23:08 (03:08 UTC)

Prévision

Le bulletin a été fait il y a 5 heures et 23 minutes, à 21:45 UTC
Prévision valable du 25 à 00 UTC au 25 à 24 UTC
Vent 12 kt de est
Visibilité 10 km ou plus
Nuages épars à une hauteur de 1800 ft
Probabilité 30% :
Temporairement
du 25 à 14 UTC au 25 à 20 UTC
Vent 14 kt de est avec des rafales jusqu'à 24 kt
Nuages fragmentés à une hauteur de 1500 ft

TAF: TNCC 242145Z 2500/2524 10012KT 9999 SCT018 PROB30 TEMPO 2514/2520 10014G24KT BKN015

Observations et prévisions météorologiques de plus de 4000 aéroports (messages METAR et TAF).

Les stations disponibles sont représentées par des disques jaunes et rouges sur la carte.

Passer la souris dessus pour voir le nom de la station.

Cliquer dessus pour voir les observations et prévisions météorologiques.

Pour changer de carte: cliquez sur les boutons verts avec une croix noire pour zoomer, sur le bouton vert avec un tiret pour effectuer un zoom arrière, ou sur les flèches vertes pour les cartes adjacentes.


METAR-TAF: